Terminal Aerodrome Forecast
Issued by NWS Melbourne, FL

Home | Current Version | Previous Version | Text Only | Print | Product List | Glossary On
Versions: 1 2 3 4 5 6 7 8 9 10 11 12 13
000
FTUS42 KMLB 010539
TAFDAB
TAF
KDAB 010539Z 0106/0206 VRB03KT P6SM SCT025 SCT250
     FM011400 14008KT P6SM FEW040 BKN250
     FM011800 11009G15KT P6SM FEW040 BKN250
     FM020000 13004KT P6SM FEW025 SCT250=

USA.gov is the U.S. government's official web portal to all federal, state and local government web resources and services.